sensor_id;sensor_type;location;lat;lon;timestamp;P1;durP1;ratioP1;P2;durP2;ratioP2
69026;SDS011;56080;47.594;19.116;2022-09-09T00:03:02;2.70;;;0.90;;
69026;SDS011;56080;47.594;19.116;2022-09-09T00:08:04;3.10;;;1.00;;
69026;SDS011;56080;47.594;19.116;2022-09-09T00:13:13;3.10;;;1.00;;
69026;SDS011;56080;47.594;19.116;2022-09-09T00:27:57;3.50;;;0.80;;
69026;SDS011;56080;47.594;19.116;2022-09-09T00:32:59;3.50;;;0.80;;
69026;SDS011;56080;47.594;19.116;2022-09-09T00:37:58;3.10;;;0.90;;
69026;SDS011;56080;47.594;19.116;2022-09-09T00:47:56;3.20;;;0.90;;
69026;SDS011;56080;47.594;19.116;2022-09-09T00:58:00;2.90;;;0.90;;
69026;SDS011;56080;47.594;19.116;2022-09-09T01:08:00;3.00;;;0.90;;
69026;SDS011;56080;47.594;19.116;2022-09-09T01:12:57;3.00;;;0.90;;
69026;SDS011;56080;47.594;19.116;2022-09-09T01:27:58;3.10;;;1.00;;
69026;SDS011;56080;47.594;19.116;2022-09-09T01:32:57;3.10;;;1.00;;
69026;SDS011;56080;47.594;19.116;2022-09-09T01:37:55;3.20;;;1.00;;
69026;SDS011;56080;47.594;19.116;2022-09-09T01:42:55;3.20;;;1.00;;
69026;SDS011;56080;47.594;19.116;2022-09-09T01:47:55;3.20;;;0.90;;
69026;SDS011;56080;47.594;19.116;2022-09-09T01:52:57;3.20;;;0.90;;
69026;SDS011;56080;47.594;19.116;2022-09-09T02:03:11;3.40;;;1.30;;
69026;SDS011;56080;47.594;19.116;2022-09-09T02:08:03;3.30;;;1.00;;
69026;SDS011;56080;47.594;19.116;2022-09-09T02:13:00;3.30;;;1.00;;
69026;SDS011;56080;47.594;19.116;2022-09-09T02:17:56;3.30;;;1.00;;
69026;SDS011;56080;47.594;19.116;2022-09-09T02:22:57;3.30;;;1.00;;
69026;SDS011;56080;47.594;19.116;2022-09-09T02:27:56;3.30;;;1.00;;
69026;SDS011;56080;47.594;19.116;2022-09-09T02:32:56;3.30;;;1.00;;
69026;SDS011;56080;47.594;19.116;2022-09-09T02:37:56;3.30;;;1.00;;
69026;SDS011;56080;47.594;19.116;2022-09-09T02:42:56;3.30;;;1.00;;
69026;SDS011;56080;47.594;19.116;2022-09-09T02:48:09;3.30;;;1.00;;
69026;SDS011;56080;47.594;19.116;2022-09-09T02:57:58;3.30;;;1.00;;
69026;SDS011;56080;47.594;19.116;2022-09-09T03:02:55;3.30;;;1.00;;
69026;SDS011;56080;47.594;19.116;2022-09-09T03:07:55;3.30;;;1.00;;
69026;SDS011;56080;47.594;19.116;2022-09-09T03:12:55;3.30;;;1.00;;
69026;SDS011;56080;47.594;19.116;2022-09-09T03:17:55;3.30;;;1.00;;
69026;SDS011;56080;47.594;19.116;2022-09-09T03:22:55;3.30;;;1.00;;
69026;SDS011;56080;47.594;19.116;2022-09-09T03:27:55;3.30;;;1.00;;
69026;SDS011;56080;47.594;19.116;2022-09-09T03:32:59;3.30;;;1.00;;
69026;SDS011;56080;47.594;19.116;2022-09-09T03:37:55;3.30;;;1.00;;
69026;SDS011;56080;47.594;19.116;2022-09-09T03:42:55;3.30;;;1.00;;
69026;SDS011;56080;47.594;19.116;2022-09-09T03:47:55;3.30;;;1.00;;
69026;SDS011;56080;47.594;19.116;2022-09-09T03:52:57;3.30;;;1.00;;
69026;SDS011;56080;47.594;19.116;2022-09-09T03:57:56;3.30;;;1.00;;
69026;SDS011;56080;47.594;19.116;2022-09-09T04:02:55;3.30;;;1.00;;
69026;SDS011;56080;47.594;19.116;2022-09-09T04:07:55;3.30;;;1.00;;
69026;SDS011;56080;47.594;19.116;2022-09-09T04:13:00;3.30;;;1.00;;
69026;SDS011;56080;47.594;19.116;2022-09-09T04:17:55;3.30;;;1.00;;
69026;SDS011;56080;47.594;19.116;2022-09-09T04:22:55;3.30;;;1.00;;
69026;SDS011;56080;47.594;19.116;2022-09-09T04:27:56;3.30;;;1.00;;
69026;SDS011;56080;47.594;19.116;2022-09-09T04:32:56;3.30;;;1.00;;
69026;SDS011;56080;47.594;19.116;2022-09-09T04:37:55;3.30;;;1.00;;
69026;SDS011;56080;47.594;19.116;2022-09-09T04:42:58;3.30;;;1.00;;
69026;SDS011;56080;47.594;19.116;2022-09-09T04:47:55;3.30;;;1.00;;
69026;SDS011;56080;47.594;19.116;2022-09-09T04:52:55;3.30;;;1.00;;
69026;SDS011;56080;47.594;19.116;2022-09-09T04:57:55;3.30;;;1.00;;
69026;SDS011;56080;47.594;19.116;2022-09-09T05:02:55;3.30;;;1.00;;
69026;SDS011;56080;47.594;19.116;2022-09-09T05:08:00;3.30;;;1.00;;
69026;SDS011;56080;47.594;19.116;2022-09-09T05:13:02;3.30;;;1.00;;
69026;SDS011;56080;47.594;19.116;2022-09-09T05:17:56;3.30;;;1.00;;
69026;SDS011;56080;47.594;19.116;2022-09-09T05:22:55;3.30;;;1.00;;
69026;SDS011;56080;47.594;19.116;2022-09-09T05:27:55;3.30;;;1.00;;
69026;SDS011;56080;47.594;19.116;2022-09-09T05:32:55;3.30;;;1.00;;
69026;SDS011;56080;47.594;19.116;2022-09-09T05:37:59;5.40;;;1.90;;
69026;SDS011;56080;47.594;19.116;2022-09-09T05:42:55;5.40;;;1.90;;
69026;SDS011;56080;47.594;19.116;2022-09-09T05:48:01;4.00;;;1.90;;
69026;SDS011;56080;47.594;19.116;2022-09-09T05:52:55;4.00;;;1.90;;
69026;SDS011;56080;47.594;19.116;2022-09-09T05:57:59;3.50;;;1.50;;
69026;SDS011;56080;47.594;19.116;2022-09-09T06:03:00;3.50;;;1.50;;
69026;SDS011;56080;47.594;19.116;2022-09-09T06:07:55;3.50;;;1.40;;
69026;SDS011;56080;47.594;19.116;2022-09-09T06:12:55;3.50;;;1.40;;
69026;SDS011;56080;47.594;19.116;2022-09-09T06:17:55;3.40;;;1.30;;
69026;SDS011;56080;47.594;19.116;2022-09-09T06:22:59;3.40;;;1.30;;
69026;SDS011;56080;47.594;19.116;2022-09-09T06:32:55;3.50;;;1.30;;
69026;SDS011;56080;47.594;19.116;2022-09-09T06:37:55;4.30;;;1.60;;
69026;SDS011;56080;47.594;19.116;2022-09-09T06:42:55;4.30;;;1.60;;
69026;SDS011;56080;47.594;19.116;2022-09-09T06:47:55;4.30;;;1.20;;
69026;SDS011;56080;47.594;19.116;2022-09-09T06:52:56;4.30;;;1.20;;
69026;SDS011;56080;47.594;19.116;2022-09-09T06:57:55;3.30;;;1.30;;
69026;SDS011;56080;47.594;19.116;2022-09-09T07:02:55;3.30;;;1.30;;
69026;SDS011;56080;47.594;19.116;2022-09-09T07:07:55;4.20;;;1.20;;
69026;SDS011;56080;47.594;19.116;2022-09-09T07:12:59;4.20;;;1.20;;
69026;SDS011;56080;47.594;19.116;2022-09-09T07:17:55;4.00;;;1.30;;
69026;SDS011;56080;47.594;19.116;2022-09-09T07:22:55;4.00;;;1.30;;
69026;SDS011;56080;47.594;19.116;2022-09-09T07:27:55;4.00;;;1.30;;
69026;SDS011;56080;47.594;19.116;2022-09-09T07:32:55;5.20;;;1.30;;
69026;SDS011;56080;47.594;19.116;2022-09-09T07:38:01;3.40;;;1.20;;
69026;SDS011;56080;47.594;19.116;2022-09-09T07:47:55;3.40;;;1.20;;
69026;SDS011;56080;47.594;19.116;2022-09-09T07:52:55;3.30;;;1.40;;
69026;SDS011;56080;47.594;19.116;2022-09-09T07:57:55;3.30;;;1.40;;
69026;SDS011;56080;47.594;19.116;2022-09-09T08:02:56;4.20;;;1.40;;
69026;SDS011;56080;47.594;19.116;2022-09-09T08:07:55;4.20;;;1.40;;
69026;SDS011;56080;47.594;19.116;2022-09-09T08:13:05;3.40;;;1.40;;
69026;SDS011;56080;47.594;19.116;2022-09-09T08:17:55;3.40;;;1.40;;
69026;SDS011;56080;47.594;19.116;2022-09-09T08:22:55;3.70;;;1.30;;
69026;SDS011;56080;47.594;19.116;2022-09-09T08:27:55;3.70;;;1.30;;
69026;SDS011;56080;47.594;19.116;2022-09-09T08:32:58;3.70;;;1.70;;
69026;SDS011;56080;47.594;19.116;2022-09-09T08:37:55;3.70;;;1.70;;
69026;SDS011;56080;47.594;19.116;2022-09-09T08:43:01;3.70;;;1.30;;
69026;SDS011;56080;47.594;19.116;2022-09-09T08:48:22;3.70;;;1.30;;
69026;SDS011;56080;47.594;19.116;2022-09-09T08:53:04;3.50;;;1.20;;
69026;SDS011;56080;47.594;19.116;2022-09-09T08:57:57;3.50;;;1.20;;
69026;SDS011;56080;47.594;19.116;2022-09-09T09:08:10;3.80;;;1.30;;
69026;SDS011;56080;47.594;19.116;2022-09-09T09:12:57;3.00;;;1.20;;
69026;SDS011;56080;47.594;19.116;2022-09-09T09:17:55;3.00;;;1.20;;
69026;SDS011;56080;47.594;19.116;2022-09-09T09:22:55;3.90;;;1.10;;
69026;SDS011;56080;47.594;19.116;2022-09-09T09:28:22;3.90;;;1.10;;
69026;SDS011;56080;47.594;19.116;2022-09-09T09:33:06;3.70;;;1.30;;
69026;SDS011;56080;47.594;19.116;2022-09-09T09:38:11;3.70;;;1.30;;
69026;SDS011;56080;47.594;19.116;2022-09-09T09:43:04;3.30;;;1.30;;
69026;SDS011;56080;47.594;19.116;2022-09-09T09:47:59;3.30;;;1.30;;
69026;SDS011;56080;47.594;19.116;2022-09-09T09:53:04;3.20;;;1.30;;
69026;SDS011;56080;47.594;19.116;2022-09-09T09:58:00;3.20;;;1.30;;
69026;SDS011;56080;47.594;19.116;2022-09-09T10:02:56;3.80;;;1.30;;
69026;SDS011;56080;47.594;19.116;2022-09-09T10:13:04;3.30;;;1.20;;
69026;SDS011;56080;47.594;19.116;2022-09-09T10:23:13;3.00;;;1.20;;
69026;SDS011;56080;47.594;19.116;2022-09-09T10:33:16;3.10;;;1.10;;
69026;SDS011;56080;47.594;19.116;2022-09-09T10:48:12;3.10;;;1.20;;
69026;SDS011;56080;47.594;19.116;2022-09-09T10:57:58;3.40;;;1.20;;
69026;SDS011;56080;47.594;19.116;2022-09-09T11:03:00;3.20;;;1.20;;
69026;SDS011;56080;47.594;19.116;2022-09-09T11:08:05;3.20;;;1.20;;
69026;SDS011;56080;47.594;19.116;2022-09-09T11:12:59;2.80;;;1.10;;
69026;SDS011;56080;47.594;19.116;2022-09-09T11:17:59;2.80;;;1.10;;
69026;SDS011;56080;47.594;19.116;2022-09-09T11:28:11;3.90;;;1.20;;
69026;SDS011;56080;47.594;19.116;2022-09-09T11:43:04;3.70;;;1.30;;
69026;SDS011;56080;47.594;19.116;2022-09-09T11:48:03;3.70;;;1.30;;
69026;SDS011;56080;47.594;19.116;2022-09-09T12:02:59;3.70;;;1.50;;
69026;SDS011;56080;47.594;19.116;2022-09-09T12:08:01;3.70;;;1.50;;
69026;SDS011;56080;47.594;19.116;2022-09-09T12:12:55;3.20;;;1.00;;
69026;SDS011;56080;47.594;19.116;2022-09-09T12:17:58;3.20;;;1.00;;
69026;SDS011;56080;47.594;19.116;2022-09-09T12:28:19;3.20;;;1.20;;
69026;SDS011;56080;47.594;19.116;2022-09-09T12:33:06;4.30;;;1.20;;
69026;SDS011;56080;47.594;19.116;2022-09-09T12:37:59;4.30;;;1.20;;
69026;SDS011;56080;47.594;19.116;2022-09-09T12:42:55;3.30;;;1.10;;
69026;SDS011;56080;47.594;19.116;2022-09-09T12:53:00;3.10;;;1.20;;
69026;SDS011;56080;47.594;19.116;2022-09-09T12:57:56;3.10;;;1.20;;
69026;SDS011;56080;47.594;19.116;2022-09-09T13:02:57;3.50;;;1.30;;
69026;SDS011;56080;47.594;19.116;2022-09-09T13:08:03;3.50;;;1.30;;
69026;SDS011;56080;47.594;19.116;2022-09-09T13:12:55;4.00;;;1.20;;
69026;SDS011;56080;47.594;19.116;2022-09-09T13:18:02;4.00;;;1.20;;
69026;SDS011;56080;47.594;19.116;2022-09-09T13:22:57;3.50;;;1.20;;
69026;SDS011;56080;47.594;19.116;2022-09-09T13:28:04;3.50;;;1.20;;
69026;SDS011;56080;47.594;19.116;2022-09-09T13:37:56;2.50;;;0.90;;
69026;SDS011;56080;47.594;19.116;2022-09-09T13:42:56;2.70;;;1.00;;
69026;SDS011;56080;47.594;19.116;2022-09-09T13:47:56;2.70;;;1.00;;
69026;SDS011;56080;47.594;19.116;2022-09-09T13:52:56;3.70;;;1.30;;
69026;SDS011;56080;47.594;19.116;2022-09-09T13:58:05;3.70;;;1.30;;
69026;SDS011;56080;47.594;19.116;2022-09-09T14:02:55;3.50;;;1.30;;
69026;SDS011;56080;47.594;19.116;2022-09-09T14:07:56;3.50;;;1.30;;
69026;SDS011;56080;47.594;19.116;2022-09-09T14:12:56;3.10;;;1.20;;
69026;SDS011;56080;47.594;19.116;2022-09-09T14:17:55;3.10;;;1.20;;
69026;SDS011;56080;47.594;19.116;2022-09-09T14:22:55;2.90;;;1.00;;
69026;SDS011;56080;47.594;19.116;2022-09-09T14:32:57;3.00;;;1.10;;
69026;SDS011;56080;47.594;19.116;2022-09-09T14:37:56;3.00;;;1.10;;
69026;SDS011;56080;47.594;19.116;2022-09-09T14:42:55;3.40;;;0.90;;
69026;SDS011;56080;47.594;19.116;2022-09-09T14:47:56;3.40;;;0.90;;
69026;SDS011;56080;47.594;19.116;2022-09-09T14:52:56;3.20;;;1.00;;
69026;SDS011;56080;47.594;19.116;2022-09-09T15:02:55;3.10;;;0.90;;
69026;SDS011;56080;47.594;19.116;2022-09-09T15:07:55;3.10;;;0.90;;
69026;SDS011;56080;47.594;19.116;2022-09-09T15:12:55;3.30;;;0.90;;
69026;SDS011;56080;47.594;19.116;2022-09-09T15:22:55;2.80;;;0.90;;
69026;SDS011;56080;47.594;19.116;2022-09-09T15:32:55;2.60;;;0.90;;
69026;SDS011;56080;47.594;19.116;2022-09-09T15:37:55;2.60;;;0.90;;
69026;SDS011;56080;47.594;19.116;2022-09-09T15:47:57;2.70;;;0.90;;
69026;SDS011;56080;47.594;19.116;2022-09-09T15:52:56;3.00;;;1.10;;
69026;SDS011;56080;47.594;19.116;2022-09-09T15:57:56;3.00;;;1.10;;
69026;SDS011;56080;47.594;19.116;2022-09-09T16:02:57;2.80;;;1.00;;
69026;SDS011;56080;47.594;19.116;2022-09-09T16:07:56;2.80;;;1.00;;
69026;SDS011;56080;47.594;19.116;2022-09-09T16:12:55;3.10;;;1.00;;
69026;SDS011;56080;47.594;19.116;2022-09-09T16:17:56;3.10;;;1.00;;
69026;SDS011;56080;47.594;19.116;2022-09-09T16:22:55;3.30;;;1.00;;
69026;SDS011;56080;47.594;19.116;2022-09-09T16:27:56;3.30;;;1.00;;
69026;SDS011;56080;47.594;19.116;2022-09-09T16:32:55;3.20;;;0.90;;
69026;SDS011;56080;47.594;19.116;2022-09-09T16:37:55;3.20;;;0.90;;
69026;SDS011;56080;47.594;19.116;2022-09-09T16:42:55;2.70;;;0.90;;
69026;SDS011;56080;47.594;19.116;2022-09-09T16:47:55;2.70;;;0.90;;
69026;SDS011;56080;47.594;19.116;2022-09-09T16:52:55;3.10;;;1.10;;
69026;SDS011;56080;47.594;19.116;2022-09-09T16:57:56;3.10;;;1.10;;
69026;SDS011;56080;47.594;19.116;2022-09-09T17:02:55;3.10;;;1.20;;
69026;SDS011;56080;47.594;19.116;2022-09-09T17:07:55;3.10;;;1.20;;
69026;SDS011;56080;47.594;19.116;2022-09-09T17:12:56;3.20;;;1.10;;
69026;SDS011;56080;47.594;19.116;2022-09-09T17:17:59;3.20;;;1.10;;
69026;SDS011;56080;47.594;19.116;2022-09-09T17:22:55;3.50;;;1.40;;
69026;SDS011;56080;47.594;19.116;2022-09-09T17:27:55;3.50;;;1.40;;
69026;SDS011;56080;47.594;19.116;2022-09-09T17:32:56;5.00;;;1.70;;
69026;SDS011;56080;47.594;19.116;2022-09-09T17:37:55;5.00;;;1.70;;
69026;SDS011;56080;47.594;19.116;2022-09-09T17:42:56;4.10;;;2.00;;
69026;SDS011;56080;47.594;19.116;2022-09-09T17:47:55;4.10;;;2.00;;
69026;SDS011;56080;47.594;19.116;2022-09-09T17:52:55;4.00;;;1.90;;
69026;SDS011;56080;47.594;19.116;2022-09-09T17:57:56;4.00;;;1.90;;
69026;SDS011;56080;47.594;19.116;2022-09-09T18:02:57;4.10;;;1.90;;
69026;SDS011;56080;47.594;19.116;2022-09-09T18:07:55;4.10;;;1.90;;
69026;SDS011;56080;47.594;19.116;2022-09-09T18:12:55;4.00;;;1.90;;
69026;SDS011;56080;47.594;19.116;2022-09-09T18:17:55;4.00;;;1.90;;
69026;SDS011;56080;47.594;19.116;2022-09-09T18:22:55;4.70;;;2.10;;
69026;SDS011;56080;47.594;19.116;2022-09-09T18:27:56;4.70;;;2.10;;
69026;SDS011;56080;47.594;19.116;2022-09-09T18:37:56;4.30;;;2.20;;
69026;SDS011;56080;47.594;19.116;2022-09-09T18:42:56;5.40;;;2.30;;
69026;SDS011;56080;47.594;19.116;2022-09-09T18:47:56;5.40;;;2.30;;
69026;SDS011;56080;47.594;19.116;2022-09-09T18:52:56;4.50;;;2.30;;
69026;SDS011;56080;47.594;19.116;2022-09-09T18:57:57;4.50;;;2.30;;
69026;SDS011;56080;47.594;19.116;2022-09-09T19:02:57;5.30;;;2.20;;
69026;SDS011;56080;47.594;19.116;2022-09-09T19:07:55;5.30;;;2.20;;
69026;SDS011;56080;47.594;19.116;2022-09-09T19:12:56;5.60;;;2.10;;
69026;SDS011;56080;47.594;19.116;2022-09-09T19:17:55;5.60;;;2.10;;
69026;SDS011;56080;47.594;19.116;2022-09-09T19:22:56;5.00;;;2.50;;
69026;SDS011;56080;47.594;19.116;2022-09-09T19:27:56;5.00;;;2.50;;
69026;SDS011;56080;47.594;19.116;2022-09-09T19:33:05;5.30;;;3.30;;
69026;SDS011;56080;47.594;19.116;2022-09-09T19:37:56;5.30;;;3.30;;
69026;SDS011;56080;47.594;19.116;2022-09-09T19:42:57;5.90;;;3.30;;
69026;SDS011;56080;47.594;19.116;2022-09-09T19:47:55;5.90;;;3.30;;
69026;SDS011;56080;47.594;19.116;2022-09-09T19:52:56;5.70;;;3.60;;
69026;SDS011;56080;47.594;19.116;2022-09-09T20:03:07;5.20;;;3.00;;
69026;SDS011;56080;47.594;19.116;2022-09-09T20:07:55;5.20;;;3.00;;
69026;SDS011;56080;47.594;19.116;2022-09-09T20:12:55;5.70;;;3.60;;
69026;SDS011;56080;47.594;19.116;2022-09-09T20:17:55;5.70;;;3.60;;
69026;SDS011;56080;47.594;19.116;2022-09-09T20:22:55;5.70;;;3.00;;
69026;SDS011;56080;47.594;19.116;2022-09-09T20:27:55;5.70;;;3.00;;
69026;SDS011;56080;47.594;19.116;2022-09-09T20:32:55;5.60;;;3.40;;
69026;SDS011;56080;47.594;19.116;2022-09-09T20:37:55;5.60;;;3.40;;
69026;SDS011;56080;47.594;19.116;2022-09-09T20:42:55;5.00;;;3.10;;
69026;SDS011;56080;47.594;19.116;2022-09-09T20:47:57;5.00;;;3.10;;
69026;SDS011;56080;47.594;19.116;2022-09-09T20:52:56;5.70;;;3.70;;
69026;SDS011;56080;47.594;19.116;2022-09-09T20:57:55;5.70;;;3.70;;
69026;SDS011;56080;47.594;19.116;2022-09-09T21:02:55;5.80;;;3.90;;
69026;SDS011;56080;47.594;19.116;2022-09-09T21:07:56;5.80;;;3.90;;
69026;SDS011;56080;47.594;19.116;2022-09-09T21:12:55;7.30;;;4.40;;
69026;SDS011;56080;47.594;19.116;2022-09-09T21:17:55;7.30;;;4.40;;
69026;SDS011;56080;47.594;19.116;2022-09-09T21:22:55;7.40;;;4.50;;
69026;SDS011;56080;47.594;19.116;2022-09-09T21:27:55;7.40;;;4.50;;
69026;SDS011;56080;47.594;19.116;2022-09-09T21:32:55;6.90;;;4.60;;
69026;SDS011;56080;47.594;19.116;2022-09-09T21:42:56;6.70;;;4.20;;
69026;SDS011;56080;47.594;19.116;2022-09-09T21:47:57;6.70;;;4.20;;
69026;SDS011;56080;47.594;19.116;2022-09-09T21:52:55;6.00;;;4.40;;
69026;SDS011;56080;47.594;19.116;2022-09-09T21:57:55;6.00;;;4.40;;
69026;SDS011;56080;47.594;19.116;2022-09-09T22:02:57;5.80;;;4.30;;
69026;SDS011;56080;47.594;19.116;2022-09-09T22:07:56;5.80;;;4.30;;
69026;SDS011;56080;47.594;19.116;2022-09-09T22:12:56;6.80;;;4.60;;
69026;SDS011;56080;47.594;19.116;2022-09-09T22:17:55;6.80;;;4.60;;
69026;SDS011;56080;47.594;19.116;2022-09-09T22:22:55;6.90;;;4.20;;
69026;SDS011;56080;47.594;19.116;2022-09-09T22:27:55;6.90;;;4.20;;
69026;SDS011;56080;47.594;19.116;2022-09-09T22:37:56;6.30;;;4.00;;
69026;SDS011;56080;47.594;19.116;2022-09-09T22:43:03;6.90;;;4.50;;
69026;SDS011;56080;47.594;19.116;2022-09-09T22:47:56;6.90;;;4.50;;
69026;SDS011;56080;47.594;19.116;2022-09-09T22:57:56;6.10;;;3.80;;
69026;SDS011;56080;47.594;19.116;2022-09-09T23:03:00;5.50;;;3.70;;
69026;SDS011;56080;47.594;19.116;2022-09-09T23:07:56;5.50;;;3.70;;
69026;SDS011;56080;47.594;19.116;2022-09-09T23:12:56;8.20;;;5.10;;
69026;SDS011;56080;47.594;19.116;2022-09-09T23:17:56;8.20;;;5.10;;
69026;SDS011;56080;47.594;19.116;2022-09-09T23:22:55;6.10;;;4.70;;
69026;SDS011;56080;47.594;19.116;2022-09-09T23:27:56;6.10;;;4.70;;
69026;SDS011;56080;47.594;19.116;2022-09-09T23:32:57;6.80;;;4.50;;
69026;SDS011;56080;47.594;19.116;2022-09-09T23:37:55;6.80;;;4.50;;
69026;SDS011;56080;47.594;19.116;2022-09-09T23:42:56;7.20;;;4.90;;
69026;SDS011;56080;47.594;19.116;2022-09-09T23:52:56;7.50;;;4.80;;
